createdAt,value
2019-01-06T00:01:27.605Z,6.10
2019-01-06T00:04:33.775Z,6.10
2019-01-06T00:07:42.196Z,6.10
2019-01-06T00:10:48.307Z,6.10
2019-01-06T00:13:45.056Z,6.00
2019-01-06T00:16:51.081Z,6.00
2019-01-06T00:19:54.517Z,5.90
2019-01-06T00:23:00.003Z,5.90
2019-01-06T00:26:05.250Z,5.90
2019-01-06T00:29:10.599Z,5.90
2019-01-06T00:32:16.290Z,5.90
2019-01-06T00:35:22.244Z,5.90
2019-01-06T00:38:28.320Z,6.00
2019-01-06T00:41:29.555Z,6.00
2019-01-06T00:44:38.208Z,6.10
2019-01-06T00:47:43.876Z,6.10
2019-01-06T00:50:49.546Z,6.10
2019-01-06T00:53:55.416Z,6.00
2019-01-06T00:57:07.388Z,6.10
2019-01-06T01:00:15.871Z,6.10
2019-01-06T01:03:21.757Z,6.20
2019-01-06T01:06:29.819Z,6.30
2019-01-06T01:09:36.173Z,6.30
2019-01-06T01:12:43.995Z,6.30
2019-01-06T01:15:45.800Z,6.20
2019-01-06T01:18:52.085Z,6.30
2019-01-06T01:21:57.591Z,6.30
2019-01-06T01:25:03.325Z,6.30
2019-01-06T01:28:09.411Z,6.30
2019-01-06T01:31:14.999Z,6.30
2019-01-06T01:34:17.967Z,6.30
2019-01-06T01:37:17.718Z,6.30
2019-01-06T01:40:19.475Z,6.30
2019-01-06T01:43:24.960Z,6.30
2019-01-06T01:46:31.742Z,6.30
2019-01-06T01:49:25.554Z,6.40
2019-01-06T01:52:38.572Z,6.10
2019-01-06T01:55:44.426Z,6.10
2019-01-06T01:58:45.184Z,6.00
2019-01-06T02:01:39.064Z,6.10
2019-01-06T02:04:52.055Z,6.00
2019-01-06T02:07:56.535Z,6.10
2019-01-06T02:11:01.871Z,6.10
2019-01-06T02:14:07.628Z,6.10
2019-01-06T02:17:13.171Z,6.00
2019-01-06T02:20:17.495Z,6.20
2019-01-06T02:23:23.423Z,6.10
2019-01-06T02:26:28.424Z,6.20
2019-01-06T02:29:34.243Z,6.20
2019-01-06T02:32:40.235Z,6.30
2019-01-06T02:35:46.055Z,6.30
2019-01-06T02:38:51.380Z,6.20
2019-01-06T02:41:58.631Z,6.20
2019-01-06T02:45:04.647Z,6.30
2019-01-06T02:48:10.691Z,6.30
2019-01-06T02:51:16.392Z,6.30
2019-01-06T02:54:22.311Z,6.20
2019-01-06T02:57:27.824Z,6.40
2019-01-06T03:00:36.776Z,6.30
2019-01-06T03:03:42.700Z,6.30
2019-01-06T03:06:48.130Z,6.30
2019-01-06T03:09:54.224Z,6.20
2019-01-06T03:12:54.553Z,6.20
2019-01-06T03:15:55.227Z,6.20
2019-01-06T03:19:00.915Z,6.20
2019-01-06T03:22:22.308Z,6.20
2019-01-06T03:25:28.301Z,6.20
2019-01-06T03:28:34.316Z,6.30
2019-01-06T03:31:40.134Z,6.30
2019-01-06T03:34:52.232Z,6.20
2019-01-06T03:37:57.773Z,6.30
2019-01-06T03:41:03.779Z,6.30
2019-01-06T03:44:15.714Z,6.30
2019-01-06T03:47:21.560Z,6.40
2019-01-06T03:50:27.700Z,6.40
2019-01-06T03:53:21.504Z,6.30
2019-01-06T03:56:34.511Z,6.30
2019-01-06T03:59:40.011Z,6.20
2019-01-06T04:02:46.154Z,6.20
2019-01-06T04:05:40.634Z,6.20
2019-01-06T04:08:46.716Z,6.30
2019-01-06T04:11:55.963Z,6.30
2019-01-06T04:15:01.767Z,6.20
2019-01-06T04:18:07.603Z,6.30
2019-01-06T04:21:04.995Z,6.20
2019-01-06T04:24:06.301Z,6.20
2019-01-06T04:27:08.942Z,6.20
2019-01-06T04:30:15.125Z,6.20
2019-01-06T04:33:23.502Z,6.20
2019-01-06T04:36:28.883Z,6.30
2019-01-06T04:39:34.818Z,6.40
2019-01-06T04:42:34.803Z,6.30
2019-01-06T04:45:40.456Z,6.30
2019-01-06T04:48:46.684Z,6.30
2019-01-06T04:51:52.633Z,6.20
2019-01-06T04:54:58.995Z,6.30
2019-01-06T04:58:03.095Z,6.20
2019-01-06T05:01:03.852Z,6.10
2019-01-06T05:04:09.923Z,6.20
2019-01-06T05:07:15.684Z,6.20
2019-01-06T05:10:21.695Z,6.20
2019-01-06T05:13:18.152Z,6.10
2019-01-06T05:16:22.107Z,6.10
2019-01-06T05:19:30.979Z,6.20
2019-01-06T05:22:31.946Z,6.10
2019-01-06T05:25:38.116Z,6.10
2019-01-06T05:28:44.103Z,6.10
2019-01-06T05:31:49.518Z,6.00
2019-01-06T05:34:55.051Z,6.00
2019-01-06T05:38:00.706Z,6.00
2019-01-06T05:41:06.308Z,6.00
2019-01-06T05:44:04.118Z,6.10
2019-01-06T05:47:09.420Z,6.10
2019-01-06T05:50:20.578Z,6.10
2019-01-06T05:53:26.700Z,6.10
2019-01-06T05:56:32.624Z,6.10
2019-01-06T05:59:38.110Z,6.10
2019-01-06T06:02:39.491Z,6.20
2019-01-06T06:05:45.259Z,6.10
2019-01-06T06:08:50.947Z,6.10
2019-01-06T06:11:56.930Z,6.10
2019-01-06T06:15:02.787Z,6.10
2019-01-06T06:18:10.154Z,6.10
2019-01-06T06:20:56.020Z,6.10
2019-01-06T06:24:06.146Z,6.10
2019-01-06T06:27:09.101Z,6.20
2019-01-06T06:30:15.111Z,6.10
2019-01-06T06:33:22.396Z,6.10
2019-01-06T06:36:31.211Z,6.10
2019-01-06T06:39:35.034Z,6.10
2019-01-06T06:42:41.212Z,6.00
2019-01-06T06:45:49.630Z,6.00
2019-01-06T06:48:47.886Z,6.00
2019-01-06T06:51:53.407Z,6.10
2019-01-06T06:54:59.202Z,6.10
2019-01-06T06:58:01.143Z,6.00
2019-01-06T07:01:06.673Z,6.00
2019-01-06T07:04:12.996Z,6.00
2019-01-06T07:07:24.522Z,6.00
2019-01-06T07:10:29.807Z,6.00
2019-01-06T07:13:23.636Z,5.90
2019-01-06T07:16:55.847Z,6.00
2019-01-06T07:20:07.719Z,6.00
2019-01-06T07:23:19.172Z,6.00
2019-01-06T07:26:21.952Z,5.90
2019-01-06T07:29:27.991Z,6.00
2019-01-06T07:32:33.468Z,6.10
2019-01-06T07:35:39.306Z,6.10
2019-01-06T07:38:45.471Z,6.00
2019-01-06T07:41:51.560Z,6.00
2019-01-06T07:44:57.632Z,6.00
2019-01-06T07:48:03.739Z,6.10
2019-01-06T07:51:09.146Z,6.00
2019-01-06T07:54:15.191Z,6.00
2019-01-06T07:57:20.907Z,6.00
2019-01-06T08:00:26.907Z,6.10
2019-01-06T08:03:35.725Z,6.00
2019-01-06T08:06:41.727Z,6.00
2019-01-06T08:09:47.888Z,6.00
2019-01-06T08:12:53.747Z,5.90
2019-01-06T08:15:59.448Z,5.90
2019-01-06T08:19:05.582Z,6.00
2019-01-06T08:22:11.117Z,6.00
2019-01-06T08:25:19.787Z,5.90
2019-01-06T08:28:25.731Z,6.00
2019-01-06T08:31:31.892Z,5.90
2019-01-06T08:34:37.751Z,5.90
2019-01-06T08:37:43.612Z,5.90
2019-01-06T08:40:49.362Z,5.90
2019-01-06T08:43:58.254Z,5.90
2019-01-06T08:47:07.003Z,5.90
2019-01-06T08:50:12.806Z,5.80
2019-01-06T08:53:18.804Z,5.70
2019-01-06T08:56:25.599Z,5.70
2019-01-06T08:59:31.493Z,5.80
2019-01-06T09:02:37.528Z,5.80
2019-01-06T09:05:43.664Z,5.80
2019-01-06T09:08:49.346Z,5.70
2019-01-06T09:11:55.404Z,5.90
2019-01-06T09:15:01.295Z,5.80
2019-01-06T09:18:13.169Z,5.80
2019-01-06T09:21:18.825Z,5.80
2019-01-06T09:24:31.546Z,5.70
2019-01-06T09:27:25.608Z,5.80
2019-01-06T09:30:38.624Z,5.90
2019-01-06T09:33:44.792Z,5.90
2019-01-06T09:36:50.867Z,5.90
2019-01-06T09:39:57.821Z,5.90
2019-01-06T09:43:06.728Z,5.90
2019-01-06T09:46:12.423Z,5.90
2019-01-06T09:49:20.554Z,5.90
2019-01-06T09:52:26.332Z,5.90
2019-01-06T09:55:32.036Z,5.90
2019-01-06T09:58:37.935Z,5.80
2019-01-06T10:01:43.652Z,5.80
2019-01-06T10:04:55.203Z,5.90
2019-01-06T10:08:00.713Z,5.80
2019-01-06T10:11:06.976Z,5.80
2019-01-06T10:14:12.842Z,5.80
2019-01-06T10:17:18.929Z,5.80
2019-01-06T10:20:24.912Z,5.80
2019-01-06T10:23:30.987Z,5.80
2019-01-06T10:26:36.898Z,5.80
2019-01-06T10:29:42.968Z,5.80
2019-01-06T10:32:48.912Z,5.80
2019-01-06T10:35:53.515Z,5.70
2019-01-06T10:38:59.249Z,5.70
2019-01-06T10:42:05.367Z,5.70
2019-01-06T10:45:17.402Z,5.80
2019-01-06T10:48:23.568Z,5.80
2019-01-06T10:51:29.831Z,5.80
2019-01-06T10:54:35.948Z,5.80
2019-01-06T10:57:48.283Z,5.80
2019-01-06T11:00:54.619Z,5.80
2019-01-06T11:04:00.392Z,5.80
2019-01-06T11:07:05.900Z,5.90
2019-01-06T11:10:12.895Z,5.90
2019-01-06T11:13:24.518Z,5.90
2019-01-06T11:16:35.759Z,5.90
2019-01-06T11:19:41.816Z,5.90
2019-01-06T11:22:47.661Z,5.90
2019-01-06T11:25:53.212Z,5.90
2019-01-06T11:28:59.020Z,6.00
2019-01-06T11:32:03.372Z,5.90
2019-01-06T11:35:08.804Z,5.90
2019-01-06T11:38:14.642Z,5.90
2019-01-06T11:41:26.142Z,6.00
2019-01-06T11:44:32.385Z,6.00
2019-01-06T11:47:35.002Z,6.00
2019-01-06T11:50:41.244Z,6.00
2019-01-06T11:53:47.332Z,6.00
2019-01-06T11:56:53.489Z,6.10
2019-01-06T11:59:59.569Z,6.10
2019-01-06T12:02:53.388Z,6.10
2019-01-06T12:06:06.495Z,6.10
2019-01-06T12:09:12.437Z,6.10
2019-01-06T12:12:21.990Z,6.10
2019-01-06T12:15:27.636Z,6.00
2019-01-06T12:18:33.805Z,6.10
2019-01-06T12:21:39.267Z,6.20
2019-01-06T12:24:45.493Z,6.10
2019-01-06T12:27:51.283Z,6.10
2019-01-06T12:30:57.281Z,6.10
2019-01-06T12:34:06.340Z,6.10
2019-01-06T12:37:10.688Z,6.10
2019-01-06T12:40:16.081Z,6.10
2019-01-06T12:43:29.194Z,6.10
2019-01-06T12:46:34.620Z,6.00
2019-01-06T12:49:39.954Z,6.10
2019-01-06T12:52:33.911Z,6.20
2019-01-06T12:55:47.316Z,6.10
2019-01-06T12:58:53.433Z,6.10
2019-01-06T13:01:59.001Z,6.10
2019-01-06T13:05:05.197Z,6.00
2019-01-06T13:08:11.092Z,6.00
2019-01-06T13:11:19.571Z,6.30
2019-01-06T13:14:27.531Z,6.30
2019-01-06T13:17:33.640Z,6.20
2019-01-06T13:20:39.854Z,6.20
2019-01-06T13:23:46.171Z,6.20
2019-01-06T13:26:52.457Z,6.00
2019-01-06T13:29:58.285Z,6.00
2019-01-06T13:33:04.198Z,5.90
2019-01-06T13:36:09.719Z,5.90
2019-01-06T13:39:15.464Z,5.90
2019-01-06T13:42:21.904Z,6.00
2019-01-06T13:45:27.719Z,6.00
2019-01-06T13:48:33.197Z,6.10
2019-01-06T13:55:06.206Z,6.00
2019-01-06T13:58:12.209Z,6.10
2019-01-06T14:01:18.094Z,6.10
2019-01-06T14:04:21.757Z,6.00
2019-01-06T14:07:27.948Z,5.90
2019-01-06T14:10:27.746Z,5.80
2019-01-06T14:13:21.585Z,5.80
2019-01-06T14:16:34.710Z,6.00
2019-01-06T14:19:40.536Z,6.00
2019-01-06T14:22:45.855Z,6.00
2019-01-06T14:25:51.723Z,6.00
2019-01-06T14:28:57.854Z,5.90
2019-01-06T14:32:06.484Z,5.90
2019-01-06T14:35:07.852Z,5.90
2019-01-06T14:38:13.883Z,5.90
2019-01-06T14:41:13.398Z,5.90
2019-01-06T14:44:19.378Z,5.90
2019-01-06T14:47:24.996Z,5.80
2019-01-06T14:50:18.839Z,5.90
2019-01-06T14:53:31.856Z,5.90
2019-01-06T14:56:37.655Z,5.90
2019-01-06T14:59:43.758Z,5.90
2019-01-06T15:02:49.668Z,5.90
2019-01-06T15:05:55.210Z,5.90
2019-01-06T15:09:01.210Z,6.00
2019-01-06T15:12:03.434Z,6.00
2019-01-06T15:15:09.544Z,6.00
2019-01-06T15:18:15.548Z,5.90
2019-01-06T15:21:21.476Z,6.00
2019-01-06T15:24:29.795Z,6.10
2019-01-06T15:27:35.460Z,6.10
2019-01-06T15:30:41.075Z,6.10
2019-01-06T15:33:52.614Z,6.00
2019-01-06T15:36:58.315Z,6.10
2019-01-06T15:40:07.287Z,6.20
2019-01-06T15:43:12.653Z,6.20
2019-01-06T15:46:18.541Z,6.10
2019-01-06T15:49:24.368Z,6.10
2019-01-06T15:52:30.247Z,6.10
2019-01-06T15:55:36.372Z,6.10
2019-01-06T15:58:42.320Z,6.20
2019-01-06T16:01:48.059Z,6.10
2019-01-06T16:04:51.324Z,6.10
2019-01-06T16:07:59.944Z,6.10
2019-01-06T16:11:05.868Z,6.10
2019-01-06T16:14:09.239Z,6.10
2019-01-06T16:17:12.366Z,6.20
2019-01-06T16:20:18.013Z,6.10
2019-01-06T16:23:24.555Z,6.10
2019-01-06T16:26:30.673Z,6.10
2019-01-06T16:29:36.799Z,6.10
2019-01-06T16:32:43.024Z,6.20
2019-01-06T16:35:51.943Z,6.10
2019-01-06T16:42:34.534Z,6.10
2019-01-06T16:45:40.138Z,6.10
2019-01-06T16:48:47.362Z,6.10
2019-01-06T16:51:53.034Z,6.10
2019-01-06T16:54:58.887Z,6.30
2019-01-06T16:58:04.817Z,6.20
2019-01-06T17:01:07.236Z,6.40
2019-01-06T17:04:17.203Z,6.30
2019-01-06T17:07:23.303Z,6.30
2019-01-06T17:10:30.259Z,6.20
2019-01-06T17:13:34.150Z,6.20
2019-01-06T17:16:40.291Z,6.20
2019-01-06T17:19:46.342Z,6.10
2019-01-06T17:22:55.076Z,6.10
2019-01-06T17:26:00.792Z,6.10
2019-01-06T17:29:06.887Z,6.20
2019-01-06T17:32:15.599Z,6.10
2019-01-06T17:35:24.622Z,6.10
2019-01-06T17:38:30.421Z,6.20
2019-01-06T17:41:37.235Z,6.10
2019-01-06T17:44:43.122Z,6.10
2019-01-06T17:47:42.068Z,6.20
2019-01-06T17:50:48.288Z,6.20
2019-01-06T17:53:53.970Z,6.20
2019-01-06T17:57:00.479Z,6.20
2019-01-06T18:00:06.644Z,6.20
2019-01-06T18:03:12.876Z,6.20
2019-01-06T18:06:13.635Z,6.20
2019-01-06T18:09:19.688Z,6.20
2019-01-06T18:12:31.371Z,6.20
2019-01-06T18:15:40.354Z,6.20
2019-01-06T18:18:46.076Z,6.20
2019-01-06T18:21:51.719Z,6.20
2019-01-06T18:24:57.808Z,6.10
2019-01-06T18:28:06.051Z,6.20
2019-01-06T18:31:12.196Z,6.20
2019-01-06T18:34:14.998Z,6.20
2019-01-06T18:37:20.735Z,6.20
2019-01-06T18:40:26.668Z,6.20
2019-01-06T18:43:29.099Z,6.10
2019-01-06T18:46:34.519Z,6.00
2019-01-06T18:49:40.819Z,6.10
2019-01-06T18:52:46.940Z,6.10
2019-01-06T18:55:52.347Z,6.10
2019-01-06T18:58:51.948Z,6.10
2019-01-06T19:01:59.228Z,6.10
2019-01-06T19:04:58.347Z,6.20
2019-01-06T19:08:03.955Z,6.20
2019-01-06T19:11:09.834Z,6.20
2019-01-06T19:14:16.012Z,6.10
2019-01-06T19:17:23.290Z,6.20
2019-01-06T19:20:29.596Z,6.20
2019-01-06T19:23:35.740Z,6.20
2019-01-06T19:26:45.018Z,6.20
2019-01-06T19:29:51.060Z,6.40
2019-01-06T19:32:56.390Z,6.70
2019-01-06T19:36:02.412Z,6.60
2019-01-06T19:39:08.438Z,6.50
2019-01-06T19:42:14.819Z,6.50
2019-01-06T19:45:23.511Z,6.50
2019-01-06T19:48:29.087Z,6.40
2019-01-06T19:51:34.015Z,6.40
2019-01-06T19:54:40.049Z,6.40
2019-01-06T19:57:47.204Z,6.40
2019-01-06T20:01:06.979Z,6.40
2019-01-06T20:04:12.601Z,6.30
2019-01-06T20:07:17.944Z,6.30
2019-01-06T20:10:24.334Z,6.30
2019-01-06T20:13:30.372Z,6.20
2019-01-06T20:16:36.260Z,6.20
2019-01-06T20:19:42.070Z,6.30
2019-01-06T20:22:47.424Z,6.20
2019-01-06T20:25:55.975Z,6.20
2019-01-06T20:29:01.846Z,6.30
2019-01-06T20:31:55.643Z,6.30
2019-01-06T20:35:08.698Z,6.30
2019-01-06T20:38:14.720Z,6.20
2019-01-06T20:41:20.748Z,6.20
2019-01-06T20:44:26.447Z,6.20
2019-01-06T20:47:31.663Z,6.20
2019-01-06T20:50:34.338Z,6.30
2019-01-06T20:53:40.178Z,6.30
2019-01-06T20:56:45.587Z,6.20
2019-01-06T20:59:53.806Z,6.20
2019-01-06T21:02:55.827Z,6.20
2019-01-06T21:06:01.644Z,6.20
2019-01-06T21:09:07.440Z,6.30
2019-01-06T21:12:13.559Z,6.20
2019-01-06T21:15:19.387Z,6.20
2019-01-06T21:18:28.908Z,6.30
2019-01-06T21:21:36.535Z,6.30
2019-01-06T21:24:42.647Z,6.30
2019-01-06T21:27:48.269Z,6.30
2019-01-06T21:30:54.328Z,6.30
2019-01-06T21:33:48.226Z,6.40
2019-01-06T21:37:01.209Z,6.30
2019-01-06T21:40:07.311Z,6.30
2019-01-06T21:43:13.299Z,6.30
2019-01-06T21:46:19.276Z,6.30
2019-01-06T21:49:25.087Z,6.40
2019-01-06T21:52:31.145Z,6.30
2019-01-06T21:55:37.481Z,6.30
2019-01-06T21:58:43.383Z,6.20
2019-01-06T22:01:49.149Z,6.30
2019-01-06T22:04:54.467Z,6.30
2019-01-06T22:08:00.343Z,6.40
2019-01-06T22:11:05.694Z,6.40
2019-01-06T22:14:11.208Z,6.40
2019-01-06T22:17:17.219Z,6.40
2019-01-06T22:20:23.267Z,6.40
2019-01-06T22:23:29.200Z,6.50
2019-01-06T22:26:34.571Z,6.50
2019-01-06T22:29:40.755Z,6.50
2019-01-06T22:32:46.660Z,6.50
2019-01-06T22:35:52.178Z,6.40
2019-01-06T22:38:58.228Z,6.40
2019-01-06T22:42:04.070Z,6.40
2019-01-06T22:45:16.085Z,6.40
2019-01-06T22:48:21.495Z,6.40
2019-01-06T22:51:32.894Z,6.50
2019-01-06T22:54:38.812Z,6.40
2019-01-06T22:57:44.519Z,6.40
2019-01-06T23:00:50.124Z,6.40
2019-01-06T23:03:56.139Z,6.40
2019-01-06T23:07:08.075Z,6.50
2019-01-06T23:10:13.475Z,6.60
2019-01-06T23:13:19.538Z,6.50
2019-01-06T23:16:25.004Z,6.50
2019-01-06T23:19:31.061Z,6.50
2019-01-06T23:22:42.454Z,6.40
2019-01-06T23:25:48.594Z,6.50
2019-01-06T23:28:48.826Z,6.50
2019-01-06T23:31:49.511Z,6.50
2019-01-06T23:34:55.439Z,6.50
2019-01-06T23:38:01.227Z,6.60
2019-01-06T23:41:09.779Z,6.60
2019-01-06T23:44:15.903Z,6.60
2019-01-06T23:47:21.854Z,6.60
2019-01-06T23:50:27.952Z,6.60
2019-01-06T23:53:33.891Z,6.60
2019-01-06T23:56:39.628Z,6.60
2019-01-06T23:59:45.467Z,6.60
